Portland, OR (97228)

6:28 AM PDT on April 26, 2015 (GMT -0700)
MesoWest | | Change Station
CLOSE
Current Station
Personal Weather Station
Location: Portland, OR
Elevation: 270 ft
Nearby Weather Stations

Elev 270 ft 45.54 °N, 122.68 °W | Updated 38 minutes ago

Partly Cloudy
Partly Cloudy
43.0 °F
Feels Like 43.0 °F
N
0.0
Wind Variable Wind from South
Gusts 0.0 mph

Today
High -- | Low -- °F
--% Chance of Precip.
Yesterday
High -- | Low -- °F
Precip. -- in
6:06 AM 8:11 PM
First Quarter, 55% visible
Pressure 30.17 in
Visibility 10.0 miles
Clouds Few 5000 ft
Few 25000 ft
Dew Point 39.0 °F
Humidity 84%
Rainfall in
Snow Depth Not available.
UV 0 out of 12
Pollen 9.40 out of 12
Air Quality Not available.
Flu Activity Sporadic
METAR KPDX 261253Z 13006KT 10SM FEW050 FEW250 06/04 A3017 RMK AO2 SLP215 T00560039

More Conditions Fewer Conditions

Pressure 30.17 in
Visibility 10.0 miles
Clouds Few 5000 ft
Few 25000 ft
Dew Point 39.0 °F
Humidity 84%
Rainfall in
Snow Depth Not available.
UV 0 out of 12
Pollen 9.40 out of 12
Air Quality Not available.
Flu Activity Sporadic
METAR KPDX 261253Z 13006KT 10SM FEW050 FEW250 06/04 A3017 RMK AO2 SLP215 T00560039

More Conditions Fewer Conditions

The full scope of the disaster following a powerful 7.8-magnitude earthquake in Nepal may not come into view for days, but global charities are already sending emergency aid. Click to see how you can help.

10-Day Weather Forecast

Almanac

Astronomy

Apr. 26, 2015 Rise Set
Actual Time
Civil Twilight
Nautical Twilight
Astronomical Twilight
Moon
Length of Visible Light
Length of Day
Tomorrow will be .
, % of the Moon is Illuminated

Today's Extremes

State Highs State Lows

Community

WunderPhotos

Upload Photos

1,816,989 photos uploaded!

WunderBlogs® & News

Nearby

Air Quality

  Air Quality AQ Index Pollutant
Not available.

Snow Depth

Station Depth Elevation

Earthquake Activity

City Distance Mag. Time & Date
Minimum magnitude displayed is 2.5.

Coastal Water Temperatures

Place Temperature

Stations

Nearby Weather Stations

Station Location Temp. Windchill Dew Point Humidity Wind Precip. Elev Updated Type